Gaviota, California
Current Conditions -  °F | °C
As of 2:53 PM on Thursday 27 Nov 2014 (Local Time) from KSBA Reporting Station
Scattered Clouds Scattered Clouds  
Wind Chill: 80°   Ceiling: Unl
Heat Index: 80°   Visibility: 10mi
Dew Point: 36°   Wind: 6mph
Humidity: 20%   Direction: 260°W
Pressure: 30.01"   Gusts: NA
Location:  34.4816°N, 119.966°W
Report Text: KSBA 272253Z 26005KT 10SM SCT250 27/02 A3001 RMK AO2 SLP161 T02670022
Loading
Personal Weather Stations






























Interactive Weather Map New forecast layout! Learn more

10-Day Weather Forecast

Advertisements
Track Severe Weather on mobile